createdAt,value
2022-08-05T00:01:36.032Z,5.70
2022-08-05T00:04:18.796Z,7.50
2022-08-05T00:06:51.757Z,7.10
2022-08-05T00:09:20.985Z,5.70
2022-08-05T00:11:56.093Z,7.40
2022-08-05T00:14:31.590Z,7.20
2022-08-05T00:17:01.820Z,6.40
2022-08-05T00:19:33.226Z,5.60
2022-08-05T00:22:04.980Z,10.10
2022-08-05T00:24:36.631Z,5.90
2022-08-05T00:27:14.085Z,6.30
2022-08-05T00:29:47.083Z,5.30
2022-08-05T00:32:18.800Z,5.60
2022-08-05T00:35:04.494Z,6.80
2022-08-05T00:37:53.221Z,5.30
2022-08-05T00:40:29.266Z,6.10
2022-08-05T00:43:00.997Z,5.60
2022-08-05T00:45:42.958Z,5.90
2022-08-05T00:48:31.475Z,6.10
2022-08-05T00:51:08.867Z,5.70
2022-08-05T00:54:02.480Z,6.30
2022-08-05T00:56:33.159Z,7.50
2022-08-05T01:01:42.653Z,6.20
2022-08-05T01:04:20.419Z,6.30
2022-08-05T01:06:58.261Z,5.60
2022-08-05T01:09:30.363Z,6.20
2022-08-05T01:12:18.164Z,5.60
2022-08-05T01:17:40.118Z,6.40
2022-08-05T01:20:34.453Z,7.10
2022-08-05T01:23:23.510Z,6.20
2022-08-05T01:26:11.148Z,5.80
2022-08-05T01:28:49.732Z,6.30
2022-08-05T01:31:29.120Z,8.20
2022-08-05T01:34:21.323Z,7.10
2022-08-05T01:37:00.677Z,6.10
2022-08-05T01:39:36.818Z,7.60
2022-08-05T01:42:21.254Z,6.30
2022-08-05T01:44:54.228Z,5.90
2022-08-05T01:47:38.628Z,7.20
2022-08-05T01:50:18.450Z,7.00
2022-08-05T01:52:54.467Z,6.00
2022-08-05T01:55:32.844Z,6.00
2022-08-05T01:58:15.712Z,5.60
2022-08-05T02:00:52.696Z,7.10
2022-08-05T02:03:29.090Z,6.00
2022-08-05T02:06:33.783Z,6.40
2022-08-05T02:08:57.935Z,5.30
2022-08-05T02:11:52.831Z,6.80
2022-08-05T02:14:32.012Z,7.60
2022-08-05T02:17:16.734Z,7.70
2022-08-05T02:20:05.525Z,7.40
2022-08-05T02:22:43.152Z,7.30
2022-08-05T02:25:22.772Z,6.10
2022-08-05T02:28:00.480Z,6.70
2022-08-05T02:30:51.789Z,6.00
2022-08-05T02:33:36.013Z,7.30
2022-08-05T02:36:13.727Z,7.80
2022-08-05T02:38:53.702Z,6.30
2022-08-05T02:41:29.003Z,6.30
2022-08-05T02:44:13.341Z,6.80
2022-08-05T02:46:58.251Z,7.10
2022-08-05T02:49:35.644Z,5.80
2022-08-05T02:52:11.489Z,7.10
2022-08-05T02:54:52.302Z,7.30
2022-08-05T02:58:10.887Z,6.20
2022-08-05T03:00:13.414Z,6.50
2022-08-05T03:02:45.075Z,7.10
2022-08-05T03:05:15.668Z,7.40
2022-08-05T03:08:07.408Z,7.00
2022-08-05T03:10:35.351Z,6.20
2022-08-05T03:13:16.881Z,6.00
2022-08-05T03:15:47.674Z,6.60
2022-08-05T03:18:17.580Z,8.00
2022-08-05T03:20:53.971Z,7.40
2022-08-05T03:23:24.691Z,7.80
2022-08-05T03:26:05.027Z,7.20
2022-08-05T03:28:43.958Z,6.90
2022-08-05T03:31:55.282Z,8.70
2022-08-05T03:34:05.311Z,7.70
2022-08-05T03:36:34.891Z,7.60
2022-08-05T03:39:13.159Z,7.50
2022-08-05T03:41:49.495Z,7.00
2022-08-05T03:44:23.904Z,7.00
2022-08-05T03:46:53.677Z,8.30
2022-08-05T03:49:30.906Z,9.30
2022-08-05T03:52:37.774Z,6.60
2022-08-05T03:56:06.146Z,7.20
2022-08-05T03:58:18.533Z,6.90
2022-08-05T04:00:51.474Z,7.10
2022-08-05T04:03:26.737Z,6.40
2022-08-05T04:05:59.421Z,7.00
2022-08-05T04:08:36.270Z,8.20
2022-08-05T04:11:08.637Z,7.10
2022-08-05T04:13:51.288Z,7.30
2022-08-05T04:16:25.445Z,7.90
2022-08-05T04:19:03.560Z,6.20
2022-08-05T04:22:08.824Z,8.50
2022-08-05T04:24:30.209Z,6.80
2022-08-05T04:26:59.207Z,7.20
2022-08-05T04:29:30.049Z,6.30
2022-08-05T04:31:59.556Z,8.10
2022-08-05T04:34:33.863Z,6.60
2022-08-05T04:37:04.286Z,7.70
2022-08-05T04:39:39.191Z,7.50
2022-08-05T04:42:18.846Z,6.90
2022-08-05T04:44:58.010Z,7.70
2022-08-05T04:47:29.962Z,8.00
2022-08-05T04:50:11.461Z,9.10
2022-08-05T04:52:41.354Z,6.60
2022-08-05T04:55:14.322Z,6.70
2022-08-05T04:57:47.756Z,6.00
2022-08-05T05:00:17.454Z,7.60
2022-08-05T05:02:46.586Z,8.30
2022-08-05T05:05:16.893Z,5.80
2022-08-05T05:08:03.723Z,9.00
2022-08-05T05:10:37.998Z,6.40
2022-08-05T05:13:06.784Z,5.90
2022-08-05T05:15:57.418Z,5.50
2022-08-05T05:18:31.043Z,7.40
2022-08-05T05:21:04.332Z,6.40
2022-08-05T05:24:01.913Z,6.90
2022-08-05T05:26:28.689Z,7.50
2022-08-05T05:29:10.058Z,8.40
2022-08-05T05:31:46.331Z,7.90
2022-08-05T05:34:16.645Z,7.40
2022-08-05T05:36:47.192Z,5.80
2022-08-05T05:39:20.326Z,4.90
2022-08-05T05:41:54.796Z,4.50
2022-08-05T05:44:36.766Z,6.80
2022-08-05T05:47:21.283Z,5.00
2022-08-05T05:49:56.565Z,4.50
2022-08-05T05:52:29.912Z,5.10
2022-08-05T05:55:07.349Z,4.40
2022-08-05T05:57:52.574Z,5.10
2022-08-05T06:00:27.818Z,5.10
2022-08-05T06:03:40.570Z,4.40
2022-08-05T06:05:53.942Z,4.80
2022-08-05T06:08:31.627Z,5.00
2022-08-05T06:11:02.100Z,4.90
2022-08-05T06:13:40.944Z,4.50
2022-08-05T06:16:29.649Z,5.10
2022-08-05T06:19:02.021Z,5.40
2022-08-05T06:21:37.468Z,4.50
2022-08-05T06:24:11.997Z,4.70
2022-08-05T06:26:51.624Z,5.80
2022-08-05T06:29:25.185Z,4.70
2022-08-05T06:32:25.610Z,4.60
2022-08-05T06:35:05.766Z,4.60
2022-08-05T06:37:56.480Z,4.90
2022-08-05T06:40:28.006Z,4.60
2022-08-05T06:43:01.242Z,5.00
2022-08-05T06:46:02.817Z,6.50
2022-08-05T06:48:52.715Z,5.70
2022-08-05T06:53:39.545Z,6.10
2022-08-05T06:56:16.277Z,5.30
2022-08-05T06:58:56.223Z,5.30
2022-08-05T07:01:31.909Z,6.10
2022-08-05T07:04:02.353Z,5.00
2022-08-05T07:06:32.717Z,4.90
2022-08-05T07:09:04.182Z,5.00
2022-08-05T07:11:37.006Z,5.20
2022-08-05T07:14:29.207Z,5.40
2022-08-05T07:18:08.483Z,4.70
2022-08-05T07:22:43.381Z,4.30
2022-08-05T07:25:55.463Z,5.50
2022-08-05T07:28:05.975Z,4.50
2022-08-05T07:30:39.751Z,4.20
2022-08-05T07:33:16.496Z,4.90
2022-08-05T07:36:03.189Z,4.80
2022-08-05T07:44:14.086Z,4.50
2022-08-05T07:46:49.695Z,5.20
2022-08-05T07:49:20.787Z,4.70
2022-08-05T07:51:53.561Z,4.20
2022-08-05T07:54:30.604Z,3.40
2022-08-05T07:57:41.711Z,3.60
2022-08-05T07:59:51.924Z,3.90
2022-08-05T08:02:26.651Z,4.10
2022-08-05T08:05:01.586Z,3.40
2022-08-05T08:07:39.532Z,5.30
2022-08-05T08:10:20.603Z,5.20
2022-08-05T08:12:50.558Z,4.40
2022-08-05T08:15:37.146Z,4.20
2022-08-05T08:18:13.751Z,3.70
2022-08-05T08:21:02.919Z,4.10
2022-08-05T08:24:02.489Z,4.40
2022-08-05T08:26:26.910Z,3.70
2022-08-05T08:29:21.564Z,4.20
2022-08-05T08:31:50.173Z,4.30
2022-08-05T08:34:30.831Z,5.00
2022-08-05T08:37:05.407Z,4.70
2022-08-05T08:39:37.526Z,3.60
2022-08-05T08:42:32.418Z,4.00
2022-08-05T08:45:20.397Z,3.90
2022-08-05T08:48:11.865Z,4.20
2022-08-05T08:51:23.078Z,3.40
2022-08-05T08:53:40.163Z,3.50
2022-08-05T08:56:13.306Z,4.50
2022-08-05T08:58:47.947Z,4.60
2022-08-05T09:01:19.725Z,3.80
2022-08-05T09:03:55.366Z,4.90
2022-08-05T09:06:31.483Z,4.10
2022-08-05T09:09:01.644Z,4.40
2022-08-05T09:11:51.071Z,3.80
2022-08-05T09:14:58.768Z,4.10
2022-08-05T09:17:16.176Z,3.30
2022-08-05T09:20:05.045Z,3.40
2022-08-05T09:23:07.918Z,4.40
2022-08-05T09:26:03.274Z,4.50
2022-08-05T09:28:34.690Z,3.80
2022-08-05T09:31:22.387Z,4.20
2022-08-05T09:34:05.547Z,3.40
2022-08-05T09:36:53.901Z,3.50
2022-08-05T09:39:39.530Z,3.40
2022-08-05T09:42:24.335Z,5.10
2022-08-05T09:45:03.576Z,4.00
2022-08-05T09:47:55.447Z,4.20
2022-08-05T09:50:37.710Z,3.30
2022-08-05T09:53:23.074Z,3.10
2022-08-05T09:56:03.996Z,3.80
2022-08-05T09:58:34.060Z,5.10
2022-08-05T10:01:13.299Z,3.60
2022-08-05T10:04:10.388Z,4.20
2022-08-05T10:06:59.387Z,4.00
2022-08-05T10:09:30.328Z,3.90
2022-08-05T10:12:30.708Z,3.60
2022-08-05T10:15:20.440Z,5.50
2022-08-05T10:18:17.761Z,4.50
2022-08-05T10:20:49.132Z,3.60
2022-08-05T10:23:55.765Z,3.40
2022-08-05T10:26:15.202Z,3.50
2022-08-05T10:28:46.359Z,4.60
2022-08-05T10:32:49.302Z,2.90
2022-08-05T10:34:08.257Z,3.20
2022-08-05T10:36:39.776Z,2.80
2022-08-05T10:39:24.890Z,3.10
2022-08-05T10:42:18.886Z,3.40
2022-08-05T10:45:21.243Z,3.80
2022-08-05T10:48:29.865Z,2.80
2022-08-05T10:51:04.017Z,3.30
2022-08-05T10:53:42.579Z,3.00
2022-08-05T10:56:25.035Z,3.60
2022-08-05T10:58:57.529Z,3.50
2022-08-05T11:01:54.578Z,2.90
2022-08-05T11:04:36.505Z,3.70
2022-08-05T11:07:08.463Z,3.90
2022-08-05T11:09:48.806Z,3.60
2022-08-05T11:12:37.456Z,2.50
2022-08-05T11:15:19.976Z,3.30
2022-08-05T11:17:59.747Z,3.70
2022-08-05T11:20:41.585Z,3.80
2022-08-05T11:24:04.473Z,3.20
2022-08-05T11:26:40.556Z,2.90
2022-08-05T11:29:37.288Z,4.20
2022-08-05T11:32:30.339Z,2.80
2022-08-05T11:34:58.927Z,2.70
2022-08-05T11:38:30.691Z,3.90
2022-08-05T11:41:14.130Z,2.80
2022-08-05T11:44:06.252Z,2.90
2022-08-05T11:47:09.880Z,3.10
2022-08-05T11:49:33.767Z,3.30
2022-08-05T11:52:11.611Z,3.40
2022-08-05T11:54:41.793Z,2.90
2022-08-05T11:57:24.243Z,3.10
2022-08-05T11:59:56.145Z,3.40
2022-08-05T12:02:33.006Z,4.10
2022-08-05T12:05:07.471Z,2.50
2022-08-05T12:08:03.664Z,4.20
2022-08-05T12:10:45.126Z,3.40
2022-08-05T12:13:18.870Z,4.10
2022-08-05T12:16:14.934Z,2.80
2022-08-05T12:18:48.978Z,3.10
2022-08-05T12:21:30.184Z,3.80
2022-08-05T12:24:07.405Z,3.60
2022-08-05T12:26:39.307Z,3.50
2022-08-05T12:29:23.046Z,2.80
2022-08-05T12:31:56.559Z,3.40
2022-08-05T12:34:31.506Z,2.60
2022-08-05T12:37:26.921Z,3.10
2022-08-05T12:40:03.569Z,3.80
2022-08-05T12:42:40.206Z,3.20
2022-08-05T12:45:10.712Z,4.60
2022-08-05T12:48:01.038Z,3.20
2022-08-05T12:50:27.974Z,3.60
2022-08-05T12:53:02.493Z,2.90
2022-08-05T12:55:32.514Z,3.70
2022-08-05T12:58:38.610Z,3.00
2022-08-05T13:02:02.755Z,3.50
2022-08-05T13:03:43.116Z,4.20
2022-08-05T13:06:17.664Z,2.80
2022-08-05T13:08:52.482Z,3.40
2022-08-05T13:12:01.102Z,2.50
2022-08-05T13:14:24.755Z,3.00
2022-08-05T13:17:20.521Z,2.40
2022-08-05T13:20:31.725Z,2.60
2022-08-05T13:23:00.647Z,3.60
2022-08-05T13:25:51.247Z,3.00
2022-08-05T13:28:20.757Z,3.20
2022-08-05T13:30:51.168Z,3.30
2022-08-05T13:34:23.129Z,3.50
2022-08-05T13:36:11.178Z,2.50
2022-08-05T13:38:43.377Z,3.30
2022-08-05T13:41:12.200Z,3.10
2022-08-05T13:46:50.642Z,2.90
2022-08-05T13:49:13.854Z,2.30
2022-08-05T13:51:46.678Z,2.60
2022-08-05T13:54:24.958Z,2.00
2022-08-05T13:56:54.319Z,2.20
2022-08-05T13:59:26.972Z,2.90
2022-08-05T14:02:00.037Z,2.70
2022-08-05T14:04:51.112Z,2.40
2022-08-05T14:07:25.668Z,2.50
2022-08-05T14:10:28.174Z,2.20
2022-08-05T14:12:57.827Z,2.20
2022-08-05T14:18:18.701Z,3.20
2022-08-05T14:20:54.821Z,2.10
2022-08-05T14:23:25.403Z,2.40
2022-08-05T14:25:58.398Z,4.70
2022-08-05T14:28:29.795Z,2.90
2022-08-05T14:31:01.411Z,2.10
2022-08-05T14:33:32.691Z,2.30
2022-08-05T14:36:21.651Z,2.30
2022-08-05T14:38:51.833Z,4.00
2022-08-05T14:41:20.511Z,2.30
2022-08-05T14:44:01.690Z,3.90
2022-08-05T14:46:38.580Z,4.30
2022-08-05T14:49:08.164Z,2.90
2022-08-05T14:51:43.033Z,2.00
2022-08-05T14:54:28.527Z,3.00
2022-08-05T14:56:59.918Z,3.10
2022-08-05T14:59:35.333Z,2.60
2022-08-05T15:02:15.768Z,2.10
2022-08-05T15:04:47.740Z,2.40
2022-08-05T15:08:05.510Z,2.80
2022-08-05T15:10:09.523Z,2.10
2022-08-05T15:12:59.917Z,2.70
2022-08-05T15:15:54.065Z,2.30
2022-08-05T15:18:17.758Z,2.80
2022-08-05T15:20:47.004Z,2.10
2022-08-05T15:23:17.058Z,3.40
2022-08-05T15:25:52.235Z,2.50
2022-08-05T15:28:27.059Z,2.10
2022-08-05T15:30:57.204Z,3.80
2022-08-05T15:33:56.756Z,2.20
2022-08-05T15:41:56.322Z,2.00
2022-08-05T15:44:30.212Z,2.30
2022-08-05T15:47:02.027Z,2.90
2022-08-05T15:49:53.764Z,2.50
2022-08-05T15:52:52.339Z,2.80
2022-08-05T15:55:16.181Z,2.40
2022-08-05T15:57:48.816Z,2.50
2022-08-05T16:00:26.510Z,2.30
2022-08-05T16:03:07.921Z,2.30
2022-08-05T16:05:39.144Z,2.20
2022-08-05T16:08:10.469Z,2.90
2022-08-05T16:10:44.617Z,2.30
2022-08-05T16:13:23.311Z,2.40
2022-08-05T16:15:52.614Z,2.60
2022-08-05T16:18:21.173Z,2.40
2022-08-05T16:20:58.161Z,2.30
2022-08-05T16:23:28.790Z,2.50
2022-08-05T16:26:17.355Z,3.60
2022-08-05T16:28:47.048Z,2.40
2022-08-05T16:33:46.136Z,4.10
2022-08-05T16:36:20.366Z,2.90
2022-08-05T16:38:54.372Z,2.50
2022-08-05T16:42:15.413Z,2.50
2022-08-05T16:44:16.516Z,2.50
2022-08-05T16:46:55.482Z,3.40
2022-08-05T16:49:26.886Z,3.40
2022-08-05T16:51:57.955Z,2.70
2022-08-05T16:54:32.820Z,2.50
2022-08-05T16:57:01.840Z,2.80
2022-08-05T16:59:31.112Z,2.80
2022-08-05T17:02:00.923Z,3.10
2022-08-05T17:04:31.008Z,2.60
2022-08-05T17:07:03.189Z,3.10
2022-08-05T17:09:57.361Z,3.20
2022-08-05T17:12:51.354Z,3.60
2022-08-05T17:15:19.684Z,2.60
2022-08-05T17:18:02.128Z,3.60
2022-08-05T17:20:31.477Z,3.00
2022-08-05T17:23:00.311Z,3.90
2022-08-05T17:25:34.059Z,4.00
2022-08-05T17:28:09.943Z,2.60
2022-08-05T17:30:50.271Z,4.60
2022-08-05T17:33:21.794Z,3.00
2022-08-05T17:36:07.831Z,4.50
2022-08-05T17:38:39.702Z,3.20
2022-08-05T17:41:11.614Z,4.10
2022-08-05T17:43:58.813Z,4.30
2022-08-05T17:46:27.622Z,3.30
2022-08-05T17:48:56.351Z,3.20
2022-08-05T17:51:26.754Z,3.70
2022-08-05T17:53:55.408Z,4.10
2022-08-05T17:56:26.034Z,3.50
2022-08-05T17:58:57.650Z,4.60
2022-08-05T18:01:26.368Z,6.40
2022-08-05T18:04:04.199Z,5.50
2022-08-05T18:06:34.495Z,5.10
2022-08-05T18:09:03.479Z,5.70
2022-08-05T18:11:33.390Z,5.50
2022-08-05T18:14:13.535Z,5.80
2022-08-05T18:16:51.844Z,5.70
2022-08-05T18:19:23.059Z,4.90
2022-08-05T18:22:08.350Z,4.60
2022-08-05T18:24:40.591Z,4.30
2022-08-05T18:27:12.503Z,4.00
2022-08-05T18:29:54.311Z,5.70
2022-08-05T18:32:28.284Z,4.90
2022-08-05T18:34:58.713Z,6.20
2022-08-05T18:37:34.119Z,4.70
2022-08-05T18:41:50.053Z,6.90
2022-08-05T18:43:03.898Z,5.40
2022-08-05T18:45:41.525Z,5.40
2022-08-05T18:48:12.042Z,4.70
2022-08-05T18:52:06.709Z,5.00
2022-08-05T18:54:08.870Z,4.10
2022-08-05T18:56:38.083Z,4.50
2022-08-05T18:59:45.702Z,4.70
2022-08-05T19:01:57.992Z,4.80
2022-08-05T19:04:27.929Z,4.80
2022-08-05T19:06:57.573Z,5.20
2022-08-05T19:09:26.422Z,7.70
2022-08-05T19:12:00.409Z,8.80
2022-08-05T19:14:44.705Z,8.70
2022-08-05T19:17:20.470Z,10.50
2022-08-05T19:19:51.584Z,14.10
2022-08-05T19:22:27.578Z,23.60
2022-08-05T19:25:02.591Z,26.70
2022-08-05T19:27:31.743Z,31.40
2022-08-05T19:30:02.947Z,30.00
2022-08-05T19:32:33.476Z,23.90
2022-08-05T19:35:05.619Z,19.40
2022-08-05T19:37:47.171Z,11.30
2022-08-05T19:43:04.760Z,11.00
2022-08-05T19:45:38.059Z,8.20
2022-08-05T19:48:23.701Z,8.50
2022-08-05T19:50:54.823Z,9.50
2022-08-05T19:54:04.886Z,6.60
2022-08-05T19:56:20.389Z,11.50
2022-08-05T19:58:53.780Z,8.00
2022-08-05T20:01:28.576Z,6.60
2022-08-05T20:03:59.141Z,7.70
2022-08-05T20:06:29.331Z,8.20
2022-08-05T20:09:06.146Z,7.40
2022-08-05T20:11:43.000Z,5.80
2022-08-05T20:14:26.562Z,6.40
2022-08-05T20:16:58.795Z,6.70
2022-08-05T20:19:35.926Z,5.90
2022-08-05T20:22:05.681Z,6.70
2022-08-05T20:24:38.510Z,5.80
2022-08-05T20:27:11.239Z,6.40
2022-08-05T20:29:40.517Z,6.60
2022-08-05T20:32:10.329Z,5.90
2022-08-05T20:34:41.478Z,7.10
2022-08-05T20:37:18.170Z,5.90
2022-08-05T20:39:59.249Z,6.90
2022-08-05T20:42:28.344Z,8.20
2022-08-05T20:44:57.039Z,8.60
2022-08-05T20:47:31.681Z,8.30
2022-08-05T20:50:02.557Z,7.70
2022-08-05T20:52:34.354Z,6.90
2022-08-05T20:55:56.329Z,6.10
2022-08-05T20:57:52.403Z,4.80
2022-08-05T21:00:49.818Z,6.10
2022-08-05T21:03:16.652Z,5.50
2022-08-05T21:05:54.428Z,6.30
2022-08-05T21:08:26.472Z,5.90
2022-08-05T21:10:58.344Z,5.10
2022-08-05T21:13:47.420Z,5.70
2022-08-05T21:16:17.478Z,7.50
2022-08-05T21:18:46.643Z,6.90
2022-08-05T21:21:16.542Z,7.20
2022-08-05T21:23:47.188Z,7.50
2022-08-05T21:26:16.667Z,6.30
2022-08-05T21:28:47.934Z,7.00
2022-08-05T21:31:19.898Z,5.90
2022-08-05T21:33:50.354Z,7.10
2022-08-05T21:36:29.930Z,6.70
2022-08-05T21:39:01.784Z,6.00
2022-08-05T21:41:35.368Z,7.20
2022-08-05T21:44:05.099Z,5.90
2022-08-05T21:46:35.000Z,5.30
2022-08-05T21:49:07.505Z,7.70
2022-08-05T21:52:16.457Z,6.50
2022-08-05T21:54:28.064Z,6.80
2022-08-05T21:57:31.611Z,8.40
2022-08-05T22:00:03.361Z,7.50
2022-08-05T22:02:42.740Z,9.00
2022-08-05T22:05:13.412Z,6.00
2022-08-05T22:07:58.889Z,8.80
2022-08-05T22:10:31.165Z,7.50
2022-08-05T22:14:06.358Z,6.60
2022-08-05T22:16:02.157Z,5.80
2022-08-05T22:18:36.679Z,6.00
2022-08-05T22:21:18.965Z,5.90
2022-08-05T22:24:13.018Z,6.40
2022-08-05T22:27:17.345Z,6.50
2022-08-05T22:29:47.263Z,5.90
2022-08-05T22:32:17.301Z,6.60
2022-08-05T22:34:46.545Z,7.40
2022-08-05T22:37:15.335Z,6.20
2022-08-05T22:39:44.277Z,5.90
2022-08-05T22:42:25.505Z,6.40
2022-08-05T22:44:56.540Z,8.10
2022-08-05T22:47:29.386Z,6.00
2022-08-05T22:50:17.985Z,5.50
2022-08-05T22:52:52.446Z,6.70
2022-08-05T22:55:23.403Z,6.30
2022-08-05T22:57:53.673Z,5.70
2022-08-05T23:00:24.396Z,5.70
2022-08-05T23:02:55.227Z,6.40
2022-08-05T23:05:24.837Z,6.20
2022-08-05T23:07:53.713Z,5.60
2022-08-05T23:10:23.727Z,5.30
2022-08-05T23:12:55.804Z,7.10
2022-08-05T23:15:29.860Z,6.30
2022-08-05T23:18:06.159Z,6.60
2022-08-05T23:20:45.213Z,6.40
2022-08-05T23:23:13.894Z,6.60
2022-08-05T23:25:52.910Z,7.00
2022-08-05T23:28:29.243Z,6.70
2022-08-05T23:31:07.100Z,7.60
2022-08-05T23:34:04.915Z,5.60
2022-08-05T23:36:40.093Z,5.70
2022-08-05T23:39:32.248Z,6.10
2022-08-05T23:42:10.850Z,6.50
2022-08-05T23:44:43.645Z,6.80
2022-08-05T23:47:15.339Z,6.30
2022-08-05T23:49:48.452Z,6.60
2022-08-05T23:52:27.574Z,7.20
2022-08-05T23:54:59.667Z,6.10
2022-08-05T23:57:29.578Z,6.20
